sensor_id;sensor_type;location;lat;lon;timestamp;P1;durP1;ratioP1;P2;durP2;ratioP2
43756;SDS011;45574;41.864;12.462;2022-11-20T17:35:42;4.57;;;1.60;;
43756;SDS011;45574;41.864;12.462;2022-11-20T17:39:00;2.03;;;1.33;;
43756;SDS011;45574;41.864;12.462;2022-11-20T17:45:44;5.15;;;2.45;;
43756;SDS011;45574;41.864;12.462;2022-11-20T17:49:22;3.65;;;1.77;;
43756;SDS011;45574;41.864;12.462;2022-11-20T17:52:40;3.13;;;1.60;;
43756;SDS011;45574;41.864;12.462;2022-11-20T17:59:38;3.00;;;1.90;;
43756;SDS011;45574;41.864;12.462;2022-11-20T18:06:19;4.47;;;1.85;;
43756;SDS011;45574;41.864;12.462;2022-11-20T18:09:34;6.78;;;2.00;;
43756;SDS011;45574;41.864;12.462;2022-11-20T18:12:40;5.07;;;2.20;;
43756;SDS011;45574;41.864;12.462;2022-11-20T18:19:44;4.30;;;1.80;;
43756;SDS011;45574;41.864;12.462;2022-11-20T18:23:11;4.38;;;2.00;;
43756;SDS011;45574;41.864;12.462;2022-11-20T18:49:34;5.60;;;2.33;;
43756;SDS011;45574;41.864;12.462;2022-11-20T18:52:27;3.63;;;2.70;;
43756;SDS011;45574;41.864;12.462;2022-11-20T18:55:13;8.52;;;3.00;;
43756;SDS011;45574;41.864;12.462;2022-11-20T18:58:23;5.90;;;2.95;;
43756;SDS011;45574;41.864;12.462;2022-11-20T19:01:44;3.17;;;2.58;;
43756;SDS011;45574;41.864;12.462;2022-11-20T19:05:12;5.53;;;3.10;;
43756;SDS011;45574;41.864;12.462;2022-11-20T19:08:22;4.75;;;2.50;;
43756;SDS011;45574;41.864;12.462;2022-11-20T19:38:05;3.40;;;2.20;;
43756;SDS011;45574;41.864;12.462;2022-11-20T21:06:24;3.95;;;1.52;;
43756;SDS011;45574;41.864;12.462;2022-11-20T21:12:44;2.55;;;1.40;;
43756;SDS011;45574;41.864;12.462;2022-11-20T21:15:33;1.98;;;1.40;;
43756;SDS011;45574;41.864;12.462;2022-11-20T21:18:23;2.20;;;1.50;;
43756;SDS011;45574;41.864;12.462;2022-11-20T21:21:11;3.75;;;2.00;;
43756;SDS011;45574;41.864;12.462;2022-11-20T21:24:15;2.45;;;1.83;;
43756;SDS011;45574;41.864;12.462;2022-11-20T21:27:03;5.05;;;1.55;;
43756;SDS011;45574;41.864;12.462;2022-11-20T21:29:49;5.38;;;1.88;;
43756;SDS011;45574;41.864;12.462;2022-11-20T21:32:35;2.85;;;1.67;;
43756;SDS011;45574;41.864;12.462;2022-11-20T21:35:22;4.53;;;1.98;;
43756;SDS011;45574;41.864;12.462;2022-11-20T21:38:08;6.30;;;1.90;;
43756;SDS011;45574;41.864;12.462;2022-11-20T21:40:57;4.57;;;2.30;;
43756;SDS011;45574;41.864;12.462;2022-11-20T21:43:46;5.35;;;2.20;;
43756;SDS011;45574;41.864;12.462;2022-11-20T21:46:32;5.57;;;2.40;;
43756;SDS011;45574;41.864;12.462;2022-11-20T21:49:19;2.75;;;1.92;;
43756;SDS011;45574;41.864;12.462;2022-11-20T21:52:05;5.43;;;2.15;;
43756;SDS011;45574;41.864;12.462;2022-11-20T21:54:51;6.43;;;1.92;;
43756;SDS011;45574;41.864;12.462;2022-11-20T21:57:37;4.72;;;1.90;;
43756;SDS011;45574;41.864;12.462;2022-11-20T22:00:23;5.68;;;2.25;;
43756;SDS011;45574;41.864;12.462;2022-11-20T22:03:09;5.53;;;2.17;;
43756;SDS011;45574;41.864;12.462;2022-11-20T22:05:55;3.55;;;2.22;;
43756;SDS011;45574;41.864;12.462;2022-11-20T22:08:42;3.38;;;2.03;;
43756;SDS011;45574;41.864;12.462;2022-11-20T22:11:28;2.53;;;1.77;;
43756;SDS011;45574;41.864;12.462;2022-11-20T22:14:14;2.13;;;1.55;;
43756;SDS011;45574;41.864;12.462;2022-11-20T22:17:10;2.72;;;1.60;;
43756;SDS011;45574;41.864;12.462;2022-11-20T22:19:57;2.42;;;1.90;;
43756;SDS011;45574;41.864;12.462;2022-11-20T22:22:43;7.43;;;2.00;;
43756;SDS011;45574;41.864;12.462;2022-11-20T22:25:29;5.13;;;1.77;;
43756;SDS011;45574;41.864;12.462;2022-11-20T22:28:15;3.60;;;1.45;;
43756;SDS011;45574;41.864;12.462;2022-11-20T22:31:02;4.72;;;1.75;;
43756;SDS011;45574;41.864;12.462;2022-11-20T22:33:48;2.35;;;1.40;;
43756;SDS011;45574;41.864;12.462;2022-11-20T22:36:35;2.40;;;1.67;;
43756;SDS011;45574;41.864;12.462;2022-11-20T22:39:21;2.70;;;1.60;;
43756;SDS011;45574;41.864;12.462;2022-11-20T22:42:07;5.90;;;1.92;;
43756;SDS011;45574;41.864;12.462;2022-11-20T22:44:53;3.92;;;2.00;;
43756;SDS011;45574;41.864;12.462;2022-11-20T22:47:40;6.10;;;1.83;;
43756;SDS011;45574;41.864;12.462;2022-11-20T22:50:26;2.15;;;1.60;;
43756;SDS011;45574;41.864;12.462;2022-11-20T22:53:12;4.28;;;1.80;;
43756;SDS011;45574;41.864;12.462;2022-11-20T22:55:58;4.03;;;1.77;;
43756;SDS011;45574;41.864;12.462;2022-11-20T22:58:46;3.70;;;1.98;;
43756;SDS011;45574;41.864;12.462;2022-11-20T23:01:33;6.18;;;1.85;;
43756;SDS011;45574;41.864;12.462;2022-11-20T23:04:19;2.22;;;1.73;;
43756;SDS011;45574;41.864;12.462;2022-11-20T23:07:06;2.95;;;1.95;;
43756;SDS011;45574;41.864;12.462;2022-11-20T23:09:52;8.35;;;2.03;;
43756;SDS011;45574;41.864;12.462;2022-11-20T23:12:38;2.63;;;1.70;;
43756;SDS011;45574;41.864;12.462;2022-11-20T23:15:24;5.10;;;2.15;;
43756;SDS011;45574;41.864;12.462;2022-11-20T23:18:10;8.05;;;2.00;;
43756;SDS011;45574;41.864;12.462;2022-11-20T23:21:02;2.90;;;1.90;;
43756;SDS011;45574;41.864;12.462;2022-11-20T23:23:48;2.97;;;1.90;;
43756;SDS011;45574;41.864;12.462;2022-11-20T23:26:37;7.60;;;1.88;;
43756;SDS011;45574;41.864;12.462;2022-11-20T23:29:23;3.25;;;1.60;;
43756;SDS011;45574;41.864;12.462;2022-11-20T23:32:09;3.25;;;1.80;;
43756;SDS011;45574;41.864;12.462;2022-11-20T23:34:55;4.68;;;1.52;;
43756;SDS011;45574;41.864;12.462;2022-11-20T23:37:41;6.35;;;1.77;;
43756;SDS011;45574;41.864;12.462;2022-11-20T23:40:28;2.63;;;1.88;;
43756;SDS011;45574;41.864;12.462;2022-11-20T23:43:14;4.13;;;1.80;;
43756;SDS011;45574;41.864;12.462;2022-11-20T23:46:00;2.20;;;1.50;;
43756;SDS011;45574;41.864;12.462;2022-11-20T23:48:47;2.90;;;1.60;;
43756;SDS011;45574;41.864;12.462;2022-11-20T23:51:33;2.45;;;1.65;;
43756;SDS011;45574;41.864;12.462;2022-11-20T23:54:19;3.33;;;1.90;;
43756;SDS011;45574;41.864;12.462;2022-11-20T23:57:05;5.25;;;1.80;;
43756;SDS011;45574;41.864;12.462;2022-11-20T23:59:51;3.85;;;1.80;;
